Nearby METAR Reports

 

KPTW - Pottstown, Pennsylvania, USA
Distance from station: NE 6mi, 10km
Updated: 01/18/2019 11:54am
Mist, Overcast
Mist, Overcast
 Wind from calm
Wind: Calm
Temperature: 28°F , -2°C
Dew Point: 28°F , -2°C
Humidity: 100%
Barometer: 30.11 inHg , 1019.6 hPa
Summary: Mist
Clouds: Overcast
Visibility: 1 1/4 miles , 2 km
Cloud details: Overcast 300 ft
2019/01/18 16:54 KPTW 181654Z AUTO 00000KT 1 1/4SM UP BR OVC003 M02/M02 A3011 RMK AO2 SLP197 P0000 I1000 T10171017 TSNO
KMQS - Coatesville, Pennsylvania, USA
Distance from station: SW 18mi, 29km
Updated: 01/18/2019 11:55am
Freezing fog, Overcast
Freezing fog, Overcast
 Wind from calm
Wind: Calm
Temperature: 32°F , 0°C
Dew Point: 32°F , 0°C
Humidity: 100%
Barometer: 30.09 inHg , 1019 hPa
Summary: Freezing Fog
Clouds: Overcast
Visibility: 1/4 mile , 0.4 km
Cloud details: Overcast 100 ft
2019/01/18 16:55 KMQS 181655Z AUTO 00000KT 1/4SM FZFG OVC001 M00/M00 A3009 RMK AO2
 
KLOM - Philly Wings F, Pennsylvania, USA
Distance from station: E 19mi, 31km
Updated: 01/18/2019 11:55am
Overcast
Overcast
 Wind from calm
Wind: Calm
Temperature: 32°F , 0°C
Dew Point: 32°F , 0°C
Humidity: 100%
Barometer: 30.11 inHg , 1019.6 hPa
Clouds: Overcast
Visibility: 1 1/4 miles , 2 km
Cloud details: Overcast 400 ft
2019/01/18 16:55 KLOM 181655Z AUTO 00000KT 1 1/4SM OVC004 00/00 A3011 RMK AO1
KRDG - Reading, Pennsylvania, USA
Distance from station: NW 22mi, 36km
Updated: 01/18/2019 12:01pm
Mist, Overcast
Mist, Overcast
 Wind from calm
Wind: Calm
Temperature: 32°F , 0°C
Dew Point: 30°F , -1°C
Humidity: 93%
Barometer: 30.09 inHg , 1019 hPa
Summary: Mist
Clouds: Overcast
Visibility: 10 miles , 16 km
Cloud details: Overcast 600 ft
2019/01/18 17:01 KRDG 181701Z 00000KT 10SM BR OVC006 00/M01 A3009 RMK AO2 T00001011
 
KUKT - Quakertown Arp, Pennsylvania, USA
Distance from station: NE 22mi, 36km
Updated: 01/18/2019 11:55am
Mist, Overcast
Mist, Overcast
 Wind from calm
Wind: Calm
Temperature: 30°F , -1°C
Dew Point: 30°F , -1°C
Humidity: 100%
Barometer: 30.08 inHg , 1018.6 hPa
Summary: Mist
Clouds: Overcast
Visibility: 1 1/2 miles , 2.4 km
Cloud details: Overcast 400 ft
2019/01/18 16:55 KUKT 181655Z AUTO 00000KT 1 1/2SM BR OVC004 M01/M01 A3008 RMK A01 P0001
KXLL - Allentown Queen, Pennsylvania, USA
Distance from station: NNE 28mi, 46km
Updated: 01/18/2019 11:55am
Mist, Overcast
Mist, Overcast
 Wind from calm
Wind: Calm
Temperature: 32°F , 0°C
Dew Point: 30°F , -1°C
Humidity: 93%
Barometer: 30.11 inHg , 1019.6 hPa
Summary: Mist
Clouds: Overcast
Visibility: 4 miles , 6 km
Cloud details: Overcast 500 ft
2019/01/18 16:55 KXLL 181655Z AUTO 00000KT 4SM BR OVC005 00/M01 A3011 RMK AO2
 
KDYL - Doylestown, Pennsylvania, USA
Distance from station: ENE 29mi, 47km
Updated: 01/18/2019 11:54am
Mist, Overcast
Mist, Overcast
 Wind from calm
Wind: Calm
Temperature: 30°F , -1°C
Dew Point: 28°F , -2°C
Humidity: 93%
Barometer: 30.08 inHg , 1018.6 hPa
Summary: Mist
Clouds: Overcast
Visibility: 4 miles , 6 km
Cloud details: Overcast 300 ft
2019/01/18 16:54 KDYL 181654Z AUTO 00000KT 4SM BR OVC003 M01/M02 A3008 RMK AO2 SLP194 T10061022
KPHL - Philadelphia, Pennsylvania, USA
Distance from station: SE 30mi, 48km
Updated: 01/18/2019 11:54am
Mist, Overcast
Mist, Overcast
 Wind from calm
Wind: Calm
Temperature: 36°F , 2°C
Dew Point: 32°F , 0°C
Humidity: 87%
Barometer: 30.11 inHg , 1019.6 hPa
Summary: Mist
Clouds: Overcast
Visibility: 4 miles , 6 km
Cloud details: Overcast 600 ft
2019/01/18 16:54 KPHL 181654Z 00000KT 4SM BR OVC006 02/00 A3011 RMK AO2 SLP196 T00170000
 
KPNE - Philadelphia/Ne, Pennsylvania, USA
Distance from station: E 33mi, 53km
Updated: 01/18/2019 12:01pm
Mist, Overcast
Mist, Overcast
 Wind from calm
Wind: Calm
Temperature: 36°F , 2°C
Dew Point: 30°F , -1°C
Humidity: 81%
Barometer: 30.11 inHg , 1019.6 hPa
Summary: Mist
Clouds: Overcast
Visibility: 1 1/4 miles , 2 km
Cloud details: Overcast 400 ft
2019/01/18 17:01 KPNE 181701Z 00000KT 1 1/4SM BR OVC004 02/M01 A3011 RMK AO2 T00171006
KABE - Allentown, Pennsylvania, USA
Distance from station: NNE 34mi, 55km
Updated: 01/18/2019 11:51am
Haze, Overcast
Haze, Overcast
 Wind from calm
Wind: Calm
Temperature: 30°F , -1°C
Dew Point: 27°F , -3°C
Humidity: 86%
Barometer: 30.09 inHg , 1019 hPa
Summary: Haze
Clouds: Overcast
Visibility: 5 miles , 8 km
Cloud details: Overcast 700 ft
2019/01/18 16:51 KABE 181651Z 00000KT 5SM HZ OVC007 M01/M03 A3009 RMK AO2 SLP194 T10061033
 
KILG - Wilmington, Delaware, USA
Distance from station: S 35mi, 56km
Updated: 01/18/2019 11:51am
Mist, Overcast
Mist, Overcast
 Wind from calm
Wind: Calm
Temperature: 36°F , 2°C
Dew Point: 34°F , 1°C
Humidity: 93%
Barometer: 30.11 inHg , 1019.6 hPa
Summary: Mist
Clouds: Overcast
Visibility: 3 miles , 5 km
Cloud details: Overcast 500 ft
2019/01/18 16:51 KILG 181651Z 00000KT 3SM BR OVC005 02/01 A3011 RMK AO2 SLP198 T00220006
KLNS - Lancaster, Pennsylvania, USA
Distance from station: W 36mi, 57km
Updated: 01/18/2019 11:53am
Mist, Overcast
Mist, Overcast
 Wind from NW
Wind: NW 3 mph , 6 km/h
Temperature: 34°F , 1°C
Dew Point: 30°F , -1°C
Humidity: 87%
Barometer: 30.10 inHg , 1019.3 hPa
Summary: Mist
Clouds: Overcast
Visibility: 1 1/2 miles , 2.4 km
Cloud details: Overcast 400 ft
2019/01/18 16:53 KLNS 181653Z 32003KT 1 1/2SM BR OVC004 01/M01 A3010 RMK AO2 SLP195 T00061011
 
KTTN - Trenton, New Jersey, USA
Distance from station: E 44mi, 70km
Updated: 01/18/2019 12:00pm
Mist, Overcast
Mist, Overcast
 Wind from calm
Wind: Calm
Temperature: 34°F , 1°C
Dew Point: 30°F , -1°C
Humidity: 87%
Barometer: 30.09 inHg , 1019 hPa
Summary: Mist
Clouds: Overcast
Visibility: 1 1/2 miles , 2.4 km
Cloud details: Overcast 600 ft
2019/01/18 17:00 KTTN 181700Z 00000KT 1 1/2SM BR OVC006 01/M01 A3009 RMK AO2 SNE1659 P0000 T00061006
KVAY - Mount Holly, New Jersey, USA
Distance from station: ESE 45mi, 73km
Updated: 01/18/2019 11:54am
Mist, Overcast
Mist, Overcast
 Wind from calm
Wind: Calm
Temperature: 34°F , 1°C
Dew Point: 30°F , -1°C
Humidity: 87%
Barometer: 30.11 inHg , 1019.6 hPa
Summary: Mist
Clouds: Overcast
Visibility: 4 miles , 6 km
Cloud details: Overcast 600 ft
2019/01/18 16:54 KVAY 181654Z AUTO 00000KT 4SM BR OVC006 01/M01 A3011 RMK AO2 SLP195 T00061006
 
KMUI - Muir Aaf/Indiant, Pennsylvania, USA
Distance from station: WNW 52mi, 84km
Updated: 01/18/2019 11:56am
Mist, Overcast
Mist, Overcast
 Wind from SSW
Wind: SSW 5 mph , 7 km/h
Temperature: 30°F , -1°C
Wind Chill: 25°F , -4°C
Dew Point: 27°F , -3°C
Humidity: 86%
Barometer: 30.09 inHg , 1019 hPa
Summary: Mist
Clouds: Overcast
Visibility: 4 miles , 6 km
Cloud details: Overcast 600 ft
2019/01/18 16:56 KMUI 181656Z 21004KT 4SM BR OVC006 M01/M03 A3009 RMK AO2A SLP198 T10091028 $
KAPG - Aberdeen/Phillip, Maryland, USA
Distance from station: SSW 56mi, 91km
Updated: 01/18/2019 11:50am
Mist, Overcast
Mist, Overcast
 Wind from calm
Wind: Calm
Temperature: 34°F , 1°C
Dew Point: 34°F , 1°C
Humidity: 100%
Barometer: 30.13 inHg , 1020.3 hPa
Summary: Mist
Clouds: Overcast
Visibility: 3 miles , 5 km
Cloud details: Mostly Cloudy 500 ft
Overcast 1400 ft
2019/01/18 16:50 KAPG 181650Z 00000KT 3SM BR BKN005 OVC014 01/01 A3013 RMK CIG 005V014 SLP207
 
KWRI - Wrightst/Mcguire, New Jersey, USA
Distance from station: E 56mi, 91km
Updated: 01/18/2019 11:56am
Overcast
Overcast
 Wind from calm
Wind: Calm
Temperature: 36°F , 2°C
Dew Point: 34°F , 1°C
Humidity: 93%
Barometer: 30.07 inHg , 1018.3 hPa
Clouds: Overcast
Visibility: 10 miles , 16 km
Cloud details: Overcast 500 ft
2019/01/18 16:56 KWRI 181656Z AUTO 00000KT 10SM OVC005 02/01 A3007 RMK AO2 SLP184 T00160009 $
KSMQ - Somerville, New Jersey, USA
Distance from station: ENE 59mi, 96km
Updated: 01/18/2019 11:53am
Haze, Overcast
Haze, Overcast
 Wind from calm
Wind: Calm
Temperature: 34°F , 1°C
Dew Point: 28°F , -2°C
Humidity: 81%
Barometer: 30.08 inHg , 1018.6 hPa
Summary: Haze
Clouds: Overcast
Visibility: 6 miles , 10 km
Cloud details: Overcast 1800 ft
2019/01/18 16:53 KSMQ 181653Z AUTO 00000KT 6SM HZ OVC018 01/M02 A3008 RMK AO2 SLP189 T00061022
 
KMDT - Middletown, Pennsylvania, USA
Distance from station: W 60mi, 97km
Updated: 01/18/2019 11:56am
Mist, Overcast
Mist, Overcast
 Wind from calm
Wind: Calm
Temperature: 30°F , -1°C
Dew Point: 27°F , -3°C
Humidity: 86%
Barometer: 30.10 inHg , 1019.3 hPa
Summary: Mist
Clouds: Overcast
Visibility: 2 miles , 3 km
Cloud details: Overcast 500 ft
2019/01/18 16:56 KMDT 181656Z 00000KT 2SM BR OVC005 M01/M03 A3010 RMK AO2 SLP196 T10061028
KMIV - Millville, New Jersey, USA
Distance from station: SSE 63mi, 101km
Updated: 01/18/2019 11:54am
Overcast
Overcast
 Wind from calm
Wind: Calm
Temperature: 36°F , 2°C
Dew Point: 34°F , 1°C
Humidity: 93%
Barometer: 30.10 inHg , 1019.3 hPa
Clouds: Overcast
Visibility: 8 miles , 13 km
Cloud details: Mostly Cloudy 400 ft
Overcast 1400 ft
2019/01/18 16:54 KMIV 181654Z AUTO 00000KT 8SM BKN004 OVC014 02/01 A3010 RMK AO2 SLP191 T00220011 TSNO